Time;durP1;ratioP1;P1;durP2;ratioP2;P2;SDS_P1;SDS_P2;PMS_P1;PMS_P2;Temp;Humidity;BMP_temperature;BMP_pressure;BME280_temperature;BME280_humidity;BME280_pressure;Samples;Min_cycle;Max_cycle;Signal;HPM_P1;HPM_P2
2022/09/11 00:12:45;;;;;;;;;;;;;;;21.75;80.49;99293.41;5171934;23;1692;-63
2022/09/11 00:15:12;;;;;;;;;;;;;;;21.75;80.54;99293.41;4993686;28;858;-63
2022/09/11 00:17:39;;;;;;;;;;;;;;;21.74;80.28;99292.66;4976820;28;1213;-62
2022/09/11 00:20:06;;;;;;;;;;;;;;;21.71;80.63;99296.41;4994443;28;865;-63
2022/09/11 00:22:33;;;;;;;;;;;;;;;21.65;80.97;99292.00;4994411;28;878;-62
2022/09/11 00:25:00;;;;;;;;;;;;;;;21.60;80.98;99288.63;4994052;28;1907;-63
2022/09/11 00:27:26;;;;;;;;;;;;;;;21.54;81.14;99289.81;4976577;28;1205;-62
2022/09/11 00:29:53;;;;;;;;;;;;;;;21.46;81.56;99289.44;4994022;28;806;-62
2022/09/11 00:32:20;;;;;;;;;;;;;;;21.48;81.45;99286.16;4993943;28;806;-62
2022/09/11 00:34:49;;;;;;;;;;;;;;;21.49;81.62;99294.09;4976436;28;1324;-63
2022/09/11 00:37:16;;;;;;;;;;;;;;;21.47;81.57;99296.63;4994203;28;913;-63
2022/09/11 00:39:42;;;;;;;;;;;;;;;21.45;81.42;99289.94;4994167;28;826;-62
2022/09/11 00:42:10;;;;;;;;;;;;;;;21.42;81.51;99283.25;4976214;28;1182;-61
2022/09/11 00:44:36;;;;;;;;;;;;;;;21.39;81.59;99278.59;4993702;28;1879;-62
2022/09/11 00:47:10;;;;;;;;;;;;;;;21.34;81.86;99277.25;4993677;28;851;-62
2022/09/11 00:49:46;;;;;;;;;;;;;;;21.33;81.81;99272.88;4976135;28;1392;-62
2022/09/11 00:52:16;;;;;;;;;;;;;;;21.44;81.04;99269.47;4993606;28;878;-62
2022/09/11 00:54:55;;;;;;;;;;;;;;;21.49;80.90;99268.03;4976038;28;1190;-62
2022/09/11 00:57:25;;;;;;;;;;;;;;;21.59;80.15;99266.59;4993507;28;866;-62
2022/09/11 00:59:57;;;;;;;;;;;;;;;21.62;80.03;99262.81;4993635;28;807;-62
2022/09/11 01:02:27;;;;;;;;;;;;;;;21.63;79.52;99267.16;4975822;28;1272;-62
2022/09/11 01:04:54;;;;;;;;;;;;;;;21.61;79.68;99273.31;4993260;28;1898;-62
2022/09/11 01:07:22;;;;;;;;;;;;;;;21.58;79.83;99277.09;4993250;28;858;-63
2022/09/11 01:09:50;;;;;;;;;;;;;;;21.67;79.92;99272.59;4993977;28;760;-62
2022/09/11 01:12:22;;;;;;;;;;;;;;;21.78;79.19;99289.59;4979828;28;1360;-62
2022/09/11 01:15:01;;;;;;;;;;;;;;;21.81;78.85;99280.97;4993422;28;826;-62
2022/09/11 01:17:37;;;;;;;;;;;;;;;21.82;78.80;99262.81;4993059;28;799;-62
2022/09/11 01:20:17;;;;;;;;;;;;;;;21.84;78.54;99262.31;4993073;28;838;-61
2022/09/11 01:22:46;;;;;;;;;;;;;;;21.85;78.42;99255.44;4993068;28;823;-62
2022/09/11 01:25:26;;;;;;;;;;;;;;;21.80;78.27;99251.28;4993063;28;1911;-62
2022/09/11 01:27:59;;;;;;;;;;;;;;;21.68;78.72;99255.25;4990835;28;1149;-62
2022/09/11 01:30:36;;;;;;;;;;;;;;;21.57;79.21;99255.88;4992810;28;1285;-62
2022/09/11 01:33:11;;;;;;;;;;;;;;;21.46;79.46;99257.75;4991605;28;890;-62
2022/09/11 01:36:03;;;;;;;;;;;;;;;21.36;80.13;99252.25;4991489;28;1185;-62
2022/09/11 01:38:30;;;;;;;;;;;;;;;21.22;80.67;99255.88;4991446;28;1284;-62
2022/09/11 01:41:01;;;;;;;;;;;;;;;21.18;81.04;99263.72;4992645;28;870;-62
2022/09/11 01:43:34;;;;;;;;;;;;;;;21.17;81.05;99256.56;4992713;28;814;-62
2022/09/11 01:46:03;;;;;;;;;;;;;;;21.05;81.78;99247.19;4992645;28;1907;-62
2022/09/11 01:48:35;;;;;;;;;;;;;;;20.94;82.26;99245.00;4992714;28;827;-62
2022/09/11 01:51:03;;;;;;;;;;;;;;;20.83;83.05;99252.50;4992610;28;858;-62
2022/09/11 01:53:36;;;;;;;;;;;;;;;20.75;83.50;99252.09;5007541;28;1398;-62
2022/09/11 01:56:17;;;;;;;;;;;;;;;20.74;83.61;99253.34;4992646;28;811;-62
2022/09/11 01:58:47;;;;;;;;;;;;;;;20.75;83.55;99254.91;4992490;28;894;-62
2022/09/11 02:01:18;;;;;;;;;;;;;;;20.63;83.69;99251.13;4992428;28;799;-62
2022/09/11 02:03:49;;;;;;;;;;;;;;;20.51;84.19;99243.78;4991307;28;1300;-62
2022/09/11 02:06:21;;;;;;;;;;;;;;;20.45;84.93;99245.69;4992392;28;862;-62
2022/09/11 02:08:50;;;;;;;;;;;;;;;20.42;85.20;99243.84;4991133;28;1307;-63
2022/09/11 02:11:17;;;;;;;;;;;;;;;20.46;85.20;99245.22;4992376;28;949;-62
2022/09/11 02:13:49;;;;;;;;;;;;;;;20.49;85.17;99249.84;4992132;28;1427;-63
2022/09/11 02:16:16;;;;;;;;;;;;;;;20.48;85.26;99251.09;4992231;28;842;-62
2022/09/11 02:18:50;;;;;;;;;;;;;;;20.49;85.27;99244.25;4992247;28;811;-63
2022/09/11 02:21:17;;;;;;;;;;;;;;;20.51;85.18;99240.97;4992246;28;834;-62
2022/09/11 02:23:44;;;;;;;;;;;;;;;20.53;85.19;99244.06;4974701;28;1310;-62
2022/09/11 02:26:13;;;;;;;;;;;;;;;20.57;84.85;99241.84;4992144;28;1966;-62
2022/09/11 02:28:39;;;;;;;;;;;;;;;20.54;84.90;99246.38;4992107;28;842;-62
2022/09/11 02:31:06;;;;;;;;;;;;;;;20.46;84.96;99244.44;4992196;28;811;-62
2022/09/11 02:33:34;;;;;;;;;;;;;;;20.31;85.41;99244.44;4974567;28;1320;-63
2022/09/11 02:36:12;;;;;;;;;;;;;;;20.19;85.88;99249.09;4992315;28;815;-62
2022/09/11 02:38:58;;;;;;;;;;;;;;;20.00;86.63;99256.88;4992643;28;889;-61
2022/09/11 02:41:29;;;;;;;;;;;;;;;19.84;87.53;99257.31;4995985;28;830;-62
2022/09/11 02:43:56;;;;;;;;;;;;;;;19.67;88.33;99262.56;4995948;28;1957;-61
2022/09/11 02:46:42;;;;;;;;;;;;;;;19.52;88.95;99260.50;4995815;28;1119;-61
2022/09/11 02:49:22;;;;;;;;;;;;;;;19.38;89.54;99270.38;4995896;28;803;-62
2022/09/11 02:52:11;;;;;;;;;;;;;;;19.18;90.22;99273.75;4995961;28;819;-61
2022/09/11 02:55:04;;;;;;;;;;;;;;;19.02;91.25;99267.78;4995783;28;839;-61
2022/09/11 02:57:34;;;;;;;;;;;;;;;19.06;91.88;99265.59;4992631;28;1371;-62
2022/09/11 03:00:05;;;;;;;;;;;;;;;19.06;91.82;99262.78;4995690;28;814;-62
2022/09/11 03:02:36;;;;;;;;;;;;;;;19.00;92.03;99262.63;4995942;28;921;-63
2022/09/11 03:05:03;;;;;;;;;;;;;;;18.85;92.33;99259.75;4995581;28;1890;-62
2022/09/11 03:07:32;;;;;;;;;;;;;;;18.75;92.86;99266.59;4995581;28;819;-62
2022/09/11 03:09:58;;;;;;;;;;;;;;;18.69;93.24;99262.88;4995353;28;921;-62
2022/09/11 03:12:29;;;;;;;;;;;;;;;18.67;93.48;99254.97;4982977;28;1263;-62
2022/09/11 03:14:56;;;;;;;;;;;;;;;18.75;93.59;99264.59;4995418;28;826;-63
2022/09/11 03:17:24;;;;;;;;;;;;;;;18.85;93.38;99261.78;4995505;28;826;-62
2022/09/11 03:19:51;;;;;;;;;;;;;;;18.90;93.08;99261.13;4994053;28;1177;-62
2022/09/11 03:22:17;;;;;;;;;;;;;;;18.93;93.21;99258.16;4995298;28;858;-62
2022/09/11 03:24:44;;;;;;;;;;;;;;;19.00;93.05;99256.28;4995172;28;1922;-62
2022/09/11 03:27:11;;;;;;;;;;;;;;;19.06;92.58;99260.75;4995169;28;799;-62
2022/09/11 03:29:38;;;;;;;;;;;;;;;19.06;92.48;99266.34;4995190;28;814;-63
2022/09/11 03:32:05;;;;;;;;;;;;;;;19.05;92.54;99264.00;4995106;28;811;-62
2022/09/11 03:34:32;;;;;;;;;;;;;;;19.06;92.31;99268.38;4995105;28;846;-63
2022/09/11 03:36:59;;;;;;;;;;;;;;;19.04;92.32;99282.06;4995044;28;823;-62
2022/09/11 03:39:25;;;;;;;;;;;;;;;19.04;92.20;99276.47;4994842;28;834;-62
2022/09/11 03:41:53;;;;;;;;;;;;;;;19.05;92.12;99275.97;4994955;28;873;-62
2022/09/11 03:44:20;;;;;;;;;;;;;;;19.10;91.75;99274.59;4994871;28;1930;-61
2022/09/11 03:46:47;;;;;;;;;;;;;;;19.23;90.78;99272.34;4994805;28;835;-62
2022/09/11 03:49:14;;;;;;;;;;;;;;;19.38;89.76;99264.78;4994842;28;795;-62
2022/09/11 03:51:42;;;;;;;;;;;;;;;19.41;88.71;99276.28;4992477;28;941;-61
2022/09/11 03:54:10;;;;;;;;;;;;;;;19.51;87.25;99272.94;4993390;28;1389;-62
2022/09/11 03:56:37;;;;;;;;;;;;;;;19.47;87.23;99274.38;4995009;28;815;-62
2022/09/11 03:59:04;;;;;;;;;;;;;;;19.37;87.56;99277.25;4994642;28;854;-62
2022/09/11 04:01:30;;;;;;;;;;;;;;;19.29;87.29;99269.66;4994567;28;893;-62
2022/09/11 04:03:56;;;;;;;;;;;;;;;19.18;87.64;99272.97;4993206;28;1898;-62
2022/09/11 04:06:23;;;;;;;;;;;;;;;19.07;87.86;99276.28;4994686;28;787;-62
2022/09/11 04:08:49;;;;;;;;;;;;;;;18.93;88.18;99271.38;4994317;28;834;-62
2022/09/11 04:11:16;;;;;;;;;;;;;;;18.88;88.33;99267.22;4994652;28;943;-62
2022/09/11 04:13:43;;;;;;;;;;;;;;;18.85;88.19;99268.13;4994252;28;1304;-62
2022/09/11 04:16:11;;;;;;;;;;;;;;;18.79;88.30;99283.25;4994349;28;835;-62
2022/09/11 04:18:38;;;;;;;;;;;;;;;18.74;88.33;99276.25;4994579;28;822;-62
2022/09/11 04:21:06;;;;;;;;;;;;;;;18.71;88.31;99274.38;4994163;28;792;-62
2022/09/11 04:23:33;;;;;;;;;;;;;;;18.67;88.23;99276.56;4994195;28;831;-62
2022/09/11 04:26:00;;;;;;;;;;;;;;;18.62;88.43;99282.81;4994090;28;1915;-62
2022/09/11 04:28:30;;;;;;;;;;;;;;;18.70;87.73;99284.81;4994056;28;826;-62
2022/09/11 04:31:05;;;;;;;;;;;;;;;18.97;85.50;99288.81;4993976;28;795;-61
2022/09/11 04:33:31;;;;;;;;;;;;;;;19.17;84.04;99291.03;4994773;28;744;-62
2022/09/11 04:36:02;;;;;;;;;;;;;;;19.34;81.92;99280.97;4994230;28;854;-62
2022/09/11 04:38:28;;;;;;;;;;;;;;;19.42;80.87;99280.66;4993754;28;889;-62
2022/09/11 04:40:58;;;;;;;;;;;;;;;19.40;80.46;99288.75;4993897;28;910;-62
2022/09/11 04:43:26;;;;;;;;;;;;;;;19.60;79.23;99286.13;4993778;28;835;-62
2022/09/11 04:45:58;;;;;;;;;;;;;;;19.79;77.68;99286.81;4993640;28;1890;-62
2022/09/11 04:48:25;;;;;;;;;;;;;;;19.96;76.40;99287.91;4993871;28;811;-62
2022/09/11 04:51:12;;;;;;;;;;;;;;;20.06;75.23;99279.44;4993879;28;843;-62
2022/09/11 04:53:38;;;;;;;;;;;;;;;20.24;74.00;99282.06;4993358;28;1473;-62
2022/09/11 04:56:06;;;;;;;;;;;;;;;20.45;73.25;99285.75;4993609;28;827;-62
2022/09/11 04:58:34;;;;;;;;;;;;;;;20.68;72.50;99289.78;4993499;28;852;-62
2022/09/11 05:01:04;;;;;;;;;;;;;;;20.84;71.25;99287.72;4993449;28;878;-62
2022/09/11 05:03:30;;;;;;;;;;;;;;;21.09;69.82;99289.13;4993293;28;819;-62
2022/09/11 05:05:57;;;;;;;;;;;;;;;21.32;68.34;99290.25;4993149;28;1890;-62
2022/09/11 05:08:26;;;;;;;;;;;;;;;21.54;68.07;99289.81;4993271;28;975;-62
2022/09/11 05:10:53;;;;;;;;;;;;;;;21.80;66.76;99292.69;4993273;28;901;-62
2022/09/11 05:13:20;;;;;;;;;;;;;;;22.06;65.77;99295.56;4993160;28;1317;-62
2022/09/11 05:15:47;;;;;;;;;;;;;;;22.28;63.69;99305.56;4993191;28;878;-62
2022/09/11 05:18:14;;;;;;;;;;;;;;;22.39;60.89;99303.63;4993065;28;835;-62
2022/09/11 05:20:40;;;;;;;;;;;;;;;22.54;60.50;99303.53;4993117;28;842;-62
2022/09/11 05:23:06;;;;;;;;;;;;;;;22.77;59.82;99289.66;4993018;28;878;-62
2022/09/11 05:25:35;;;;;;;;;;;;;;;23.02;58.15;99296.50;4992884;28;1981;-62
2022/09/11 05:28:03;;;;;;;;;;;;;;;23.20;57.77;99295.38;4992939;28;822;-62
2022/09/11 05:30:30;;;;;;;;;;;;;;;23.50;57.61;99295.81;4993043;28;850;-62
2022/09/11 05:32:56;;;;;;;;;;;;;;;23.83;56.86;99297.28;4992856;28;878;-62
2022/09/11 05:35:23;;;;;;;;;;;;;;;24.08;55.79;99294.81;4992755;28;894;-62
2022/09/11 05:37:50;;;;;;;;;;;;;;;24.28;54.32;99293.81;4992681;28;882;-62
2022/09/11 05:40:17;;;;;;;;;;;;;;;24.43;53.30;99297.19;4992703;28;859;-62
2022/09/11 05:42:43;;;;;;;;;;;;;;;24.70;52.41;99292.13;4992677;28;809;-62
2022/09/11 05:45:10;;;;;;;;;;;;;;;24.95;51.65;99288.28;4975097;28;1957;-62
2022/09/11 05:47:37;;;;;;;;;;;;;;;24.97;50.81;99290.59;4992694;28;910;-61
2022/09/11 05:50:04;;;;;;;;;;;;;;;24.94;50.52;99294.44;4992565;28;815;-62
2022/09/11 05:52:33;;;;;;;;;;;;;;;25.00;50.54;99283.91;4992581;28;823;-62
2022/09/11 05:55:00;;;;;;;;;;;;;;;25.23;49.43;99291.09;4975113;28;1173;-62
2022/09/11 05:57:27;;;;;;;;;;;;;;;25.40;48.74;99293.88;4992445;28;843;-62
2022/09/11 05:59:53;;;;;;;;;;;;;;;25.76;48.11;99296.88;4992483;28;901;-62
2022/09/11 06:02:21;;;;;;;;;;;;;;;25.76;47.09;99291.22;4992640;28;870;-61
2022/09/11 06:04:47;;;;;;;;;;;;;;;25.62;47.55;99280.97;4992337;28;1894;-62
2022/09/11 06:07:14;;;;;;;;;;;;;;;25.71;47.29;99286.34;4992196;28;897;-62
2022/09/11 06:09:40;;;;;;;;;;;;;;;25.49;47.32;99289.25;4992312;28;803;-62
2022/09/11 06:12:09;;;;;;;;;;;;;;;25.26;47.44;99281.59;4992394;28;1270;-62
2022/09/11 06:14:44;;;;;;;;;;;;;;;25.31;47.70;99282.84;4991748;28;894;-62
2022/09/11 06:17:11;;;;;;;;;;;;;;;25.36;47.66;99284.13;4992299;28;870;-62
2022/09/11 06:19:37;;;;;;;;;;;;;;;25.51;47.41;99292.31;4992232;28;811;-62
2022/09/11 06:22:03;;;;;;;;;;;;;;;25.68;47.48;99290.19;4974687;28;1403;-62
2022/09/11 06:24:30;;;;;;;;;;;;;;;25.72;47.09;99293.53;4992292;28;1974;-62
2022/09/11 06:26:56;;;;;;;;;;;;;;;25.84;46.45;99303.53;4992502;28;811;-61
2022/09/11 06:29:24;;;;;;;;;;;;;;;25.86;46.50;99300.94;4992370;28;840;-61
2022/09/11 06:31:51;;;;;;;;;;;;;;;25.65;46.41;99303.34;4974799;28;1637;-61
2022/09/11 06:34:18;;;;;;;;;;;;;;;25.43;47.53;99306.22;4974753;28;1221;-61
2022/09/11 06:36:46;;;;;;;;;;;;;;;26.11;45.89;99306.78;4992094;28;819;-61
2022/09/11 06:39:13;;;;;;;;;;;;;;;27.06;43.46;99310.28;4992156;28;854;-61
2022/09/11 06:41:42;;;;;;;;;;;;;;;28.03;41.73;99305.13;4992116;28;842;-62
2022/09/11 06:44:13;;;;;;;;;;;;;;;28.68;40.18;99311.75;4991904;28;1890;-62
2022/09/11 06:46:41;;;;;;;;;;;;;;;28.74;39.82;99314.47;4992000;28;901;-61
2022/09/11 06:49:09;;;;;;;;;;;;;;;28.71;39.33;99307.81;4992115;28;843;-61
2022/09/11 06:51:35;;;;;;;;;;;;;;;28.96;39.63;99316.22;4991937;28;895;-62
2022/09/11 06:54:04;;;;;;;;;;;;;;;28.58;39.58;99313.44;4991946;28;902;-61
2022/09/11 06:56:33;;;;;;;;;;;;;;;28.97;39.65;99315.66;4992096;28;803;-61
2022/09/11 06:59:00;;;;;;;;;;;;;;;28.90;38.65;99319.91;4991892;28;898;-61
2022/09/11 07:02:03;;;;;;;;;;;;;;;28.57;39.28;99317.59;4991851;28;819;-60
2022/09/11 07:04:30;;;;;;;;;;;;;;;28.84;39.29;99324.91;4974118;28;1887;-61
2022/09/11 07:06:57;;;;;;;;;;;;;;;29.10;38.50;99326.31;4991842;28;808;-61
2022/09/11 07:09:24;;;;;;;;;;;;;;;29.70;38.32;99320.09;4991776;28;862;-61
2022/09/11 07:11:51;;;;;;;;;;;;;;;29.96;37.38;99320.59;4991651;28;1188;-61
2022/09/11 07:14:40;;;;;;;;;;;;;;;30.13;36.64;99321.03;4974259;28;1194;-61
2022/09/11 07:17:06;;;;;;;;;;;;;;;29.98;36.59;99313.03;4991620;28;791;-61
2022/09/11 07:19:34;;;;;;;;;;;;;;;29.47;37.27;99325.41;4991702;28;811;-61
2022/09/11 07:22:01;;;;;;;;;;;;;;;28.93;38.35;99335.09;4991659;28;863;-61
2022/09/11 07:24:28;;;;;;;;;;;;;;;28.52;39.22;99327.72;4991916;28;1938;-61
2022/09/11 07:26:55;;;;;;;;;;;;;;;28.52;39.08;99321.28;4995270;28;882;-60
2022/09/11 07:29:21;;;;;;;;;;;;;;;28.47;39.13;99328.56;4977647;28;1154;-61
2022/09/11 07:31:49;;;;;;;;;;;;;;;28.80;38.74;99335.81;4995241;28;827;-61
2022/09/11 07:34:15;;;;;;;;;;;;;;;28.47;38.82;99334.25;4995151;28;815;-61
2022/09/11 07:36:44;;;;;;;;;;;;;;;28.04;40.10;99341.53;4995236;28;870;-61
2022/09/11 07:39:12;;;;;;;;;;;;;;;28.31;39.31;99341.69;4995046;28;803;-61
2022/09/11 07:41:39;;;;;;;;;;;;;;;28.60;38.65;99344.94;4995271;28;853;-61
2022/09/11 07:44:05;;;;;;;;;;;;;;;29.29;37.97;99341.25;4994895;28;1958;-60
2022/09/11 07:46:32;;;;;;;;;;;;;;;29.41;37.47;99352.44;4994845;28;827;-61
2022/09/11 07:48:58;;;;;;;;;;;;;;;29.87;37.02;99347.44;4995050;28;890;-61
2022/09/11 07:51:25;;;;;;;;;;;;;;;30.24;36.13;99345.66;4994783;28;850;-61
2022/09/11 07:53:56;;;;;;;;;;;;;;;30.30;35.73;99343.47;4994768;28;803;-60
2022/09/11 07:56:24;;;;;;;;;;;;;;;30.24;35.97;99342.81;4994706;28;795;-60
2022/09/11 07:58:51;;;;;;;;;;;;;;;30.13;36.20;99340.97;4994681;28;862;-61
2022/09/11 08:01:19;;;;;;;;;;;;;;;29.83;36.55;99344.94;4994500;28;784;-60
2022/09/11 08:03:48;;;;;;;;;;;;;;;29.80;36.65;99345.25;4994466;28;902;-61
2022/09/11 08:06:17;;;;;;;;;;;;;;;30.55;35.96;99346.03;4994420;28;1882;-61
2022/09/11 08:08:46;;;;;;;;;;;;;;;31.09;34.76;99342.41;4994730;28;850;-61
2022/09/11 08:14:16;;;;;;;;;;;;;;;30.68;35.21;99335.34;5008492;28;1296;-61
2022/09/11 08:16:43;;;;;;;;;;;;;;;31.14;34.76;99332.94;4994436;28;815;-61
2022/09/11 08:19:19;;;;;;;;;;;;;;;31.05;34.10;99332.69;4994300;28;854;-61
2022/09/11 08:21:48;;;;;;;;;;;;;;;30.51;34.92;99334.97;4994239;28;831;-61
2022/09/11 08:24:20;;;;;;;;;;;;;;;30.39;35.19;99337.31;4976638;28;1969;-60
2022/09/11 08:26:46;;;;;;;;;;;;;;;29.97;35.60;99333.53;4994143;28;827;-60
2022/09/11 08:29:12;;;;;;;;;;;;;;;29.92;36.23;99332.34;4994109;28;811;-61
2022/09/11 08:31:39;;;;;;;;;;;;;;;30.21;35.65;99335.34;4994079;28;815;-60
2022/09/11 08:34:05;;;;;;;;;;;;;;;30.37;35.26;99322.84;4993908;28;935;-61
2022/09/11 08:36:33;;;;;;;;;;;;;;;29.99;35.62;99319.50;4993399;28;859;-61
2022/09/11 08:39:01;;;;;;;;;;;;;;;30.14;35.57;99322.53;4993904;28;886;-62
2022/09/11 08:41:41;;;;;;;;;;;;;;;30.20;35.29;99316.72;4993826;28;855;-61
2022/09/11 08:44:10;;;;;;;;;;;;;;;30.20;35.27;99311.03;4993996;28;1882;-62
2022/09/11 08:46:39;;;;;;;;;;;;;;;30.73;34.98;99308.78;4993779;28;851;-62
2022/09/11 08:49:24;;;;;;;;;;;;;;;30.99;34.12;99307.13;4993696;28;866;-62
2022/09/11 08:54:55;;;;;;;;;;;;;;;31.28;33.56;99298.59;4993665;28;688;-62
2022/09/11 08:57:31;;;;;;;;;;;;;;;30.96;33.26;99308.25;4993579;28;890;-62
2022/09/11 08:59:58;;;;;;;;;;;;;;;30.07;33.92;99303.28;4993551;28;791;-61
2022/09/11 09:02:26;;;;;;;;;;;;;;;30.16;34.44;99299.19;4993463;28;858;-62
2022/09/11 09:05:05;;;;;;;;;;;;;;;30.50;33.94;99288.56;4993362;28;1944;-62
2022/09/11 09:32:54;;;;;;;;;;;;;;;30.18;34.24;99259.53;4993021;28;720;-61
2022/09/11 09:35:28;;;;;;;;;;;;;;;30.29;34.29;99256.44;4992957;28;842;-62
2022/09/11 09:37:54;;;;;;;;;;;;;;;30.36;34.21;99258.59;4992851;28;827;-60
2022/09/11 09:40:23;;;;;;;;;;;;;;;30.55;34.02;99255.53;4992825;28;818;-61
2022/09/11 09:43:23;;;;;;;;;;;;;;;30.66;33.08;99265.91;4992724;28;866;-61
2022/09/11 09:45:50;;;;;;;;;;;;;;;29.97;33.96;99256.59;4960382;28;1973;-61
2022/09/11 09:48:17;;;;;;;;;;;;;;;29.14;34.95;99249.94;4991936;28;795;-62
2022/09/11 09:50:43;;;;;;;;;;;;;;;28.43;36.61;99242.84;4992607;28;890;-62
2022/09/11 09:53:10;;;;;;;;;;;;;;;28.63;35.83;99238.66;4992632;28;878;-62
2022/09/11 09:55:38;;;;;;;;;;;;;;;29.08;35.77;99246.41;4992768;28;780;-62
2022/09/11 09:58:06;;;;;;;;;;;;;;;29.93;35.50;99240.59;4992474;28;799;-62
2022/09/11 10:00:35;;;;;;;;;;;;;;;30.79;33.07;99237.34;4992439;28;933;-61
2022/09/11 10:03:19;;;;;;;;;;;;;;;30.78;32.70;99240.75;4992407;28;822;-61
2022/09/11 10:05:47;;;;;;;;;;;;;;;30.47;32.42;99235.53;4992303;28;1957;-61
2022/09/11 10:08:41;;;;;;;;;;;;;;;29.77;33.44;99229.59;4992364;28;842;-62
2022/09/11 10:11:26;;;;;;;;;;;;;;;30.28;32.24;99243.47;4990562;28;1061;-61
2022/09/11 10:13:54;;;;;;;;;;;;;;;30.21;32.44;99230.66;4992290;28;819;-62
2022/09/11 10:16:31;;;;;;;;;;;;;;;29.84;33.21;99232.53;4992284;28;839;-61
2022/09/11 10:18:59;;;;;;;;;;;;;;;30.32;33.01;99226.81;4992217;28;1269;-62
2022/09/11 10:21:34;;;;;;;;;;;;;;;31.11;31.93;99219.91;4992394;28;878;-62
2022/09/11 10:24:09;;;;;;;;;;;;;;;30.78;31.48;99226.47;4974760;28;1471;-61
2022/09/11 10:26:44;;;;;;;;;;;;;;;30.22;32.38;99223.66;4992118;28;859;-62
2022/09/11 10:29:13;;;;;;;;;;;;;;;29.64;32.43;99216.13;4992212;28;897;-62
2022/09/11 10:31:49;;;;;;;;;;;;;;;29.29;32.72;99218.88;4992044;28;897;-63
2022/09/11 10:34:19;;;;;;;;;;;;;;;29.27;33.38;99218.66;4992114;28;819;-63
2022/09/11 10:36:55;;;;;;;;;;;;;;;29.76;32.74;99219.50;4992018;28;815;-63
2022/09/11 10:39:24;;;;;;;;;;;;;;;29.89;32.16;99217.41;4992149;28;835;-63
2022/09/11 10:41:53;;;;;;;;;;;;;;;29.78;32.21;99211.94;4992045;28;894;-64
2022/09/11 10:44:21;;;;;;;;;;;;;;;29.55;33.02;99213.72;4991995;28;1945;-64
2022/09/11 10:47:06;;;;;;;;;;;;;;;29.54;33.61;99212.19;4992183;28;808;-63
2022/09/11 10:49:33;;;;;;;;;;;;;;;29.49;33.31;99216.69;4992089;28;879;-63
2022/09/11 10:52:31;;;;;;;;;;;;;;;29.47;33.62;99203.00;4974493;28;1222;-64
2022/09/11 10:55:05;;;;;;;;;;;;;;;29.61;33.32;99217.97;4991762;28;795;-63
2022/09/11 10:57:37;;;;;;;;;;;;;;;29.86;32.83;99209.19;4991937;28;861;-63
2022/09/11 11:00:11;;;;;;;;;;;;;;;30.25;32.22;99202.59;4993177;28;796;-63
2022/09/11 11:02:45;;;;;;;;;;;;;;;31.31;31.01;99209.75;4995669;28;855;-62
2022/09/11 11:05:31;;;;;;;;;;;;;;;32.58;29.92;99204.13;4995872;28;1911;-62
2022/09/11 11:07:58;;;;;;;;;;;;;;;32.75;29.34;99200.69;4995944;28;807;-62
2022/09/11 11:10:32;;;;;;;;;;;;;;;33.32;28.32;99197.38;4996262;28;1037;-62
2022/09/11 11:16:19;;;;;;;;;;;;;;;32.14;29.11;99193.56;4995639;28;717;-61
2022/09/11 11:19:18;;;;;;;;;;;;;;;31.42;29.38;99200.09;4995526;28;1283;-62
2022/09/11 11:21:50;;;;;;;;;;;;;;;31.79;29.63;99197.25;4995354;28;827;-62
2022/09/11 11:24:17;;;;;;;;;;;;;;;32.51;28.53;99188.44;4995264;28;1981;-62
2022/09/11 11:26:51;;;;;;;;;;;;;;;32.07;28.50;99193.53;4995315;28;846;-62
2022/09/11 11:29:27;;;;;;;;;;;;;;;31.08;29.33;99198.19;4995186;28;827;-63
2022/09/11 11:31:57;;;;;;;;;;;;;;;30.85;29.88;99191.53;4977635;28;1301;-62
2022/09/11 11:34:24;;;;;;;;;;;;;;;30.70;30.24;99197.88;4995067;28;827;-62
2022/09/11 11:37:05;;;;;;;;;;;;;;;31.40;28.99;99182.00;4977671;28;1443;-62
2022/09/11 11:39:37;;;;;;;;;;;;;;;32.32;28.55;99170.91;4995031;28;878;-62
2022/09/11 11:42:06;;;;;;;;;;;;;;;33.27;26.99;99169.72;4995039;28;838;-62
2022/09/11 11:44:51;;;;;;;;;;;;;;;33.28;25.97;99170.47;4994904;28;1886;-62
2022/09/11 11:47:42;;;;;;;;;;;;;;;32.39;26.92;99175.88;4994885;28;811;-63
2022/09/11 11:50:21;;;;;;;;;;;;;;;31.33;28.11;99170.00;4994895;28;885;-62
2022/09/11 11:52:48;;;;;;;;;;;;;;;30.64;28.83;99168.75;4994985;28;795;-62
2022/09/11 11:55:40;;;;;;;;;;;;;;;29.98;29.45;99170.59;4994866;28;814;-62
2022/09/11 11:58:11;;;;;;;;;;;;;;;29.65;29.95;99167.16;4994748;28;898;-63
2022/09/11 12:00:42;;;;;;;;;;;;;;;29.39;30.28;99162.28;4994542;28;827;-64
2022/09/11 12:03:24;;;;;;;;;;;;;;;30.05;30.10;99160.59;4994617;28;859;-63
2022/09/11 12:05:53;;;;;;;;;;;;;;;31.53;28.42;99148.41;4994515;28;1890;-63
2022/09/11 12:08:23;;;;;;;;;;;;;;;31.98;27.84;99142.63;4994543;28;807;-62
2022/09/11 12:11:08;;;;;;;;;;;;;;;32.05;26.84;99142.69;4994090;28;1140;-63
2022/09/11 12:13:36;;;;;;;;;;;;;;;31.00;28.04;99154.56;4976619;28;1323;-63
2022/09/11 12:16:14;;;;;;;;;;;;;;;30.40;28.90;99153.53;4994639;28;819;-63
2022/09/11 12:18:41;;;;;;;;;;;;;;;30.28;28.98;99150.22;4994468;28;1115;-63
2022/09/11 12:21:21;;;;;;;;;;;;;;;30.31;29.16;99146.25;4994729;28;779;-63
2022/09/11 12:23:47;;;;;;;;;;;;;;;30.44;29.38;99141.78;4994184;28;911;-63
2022/09/11 12:26:16;;;;;;;;;;;;;;;30.82;28.37;99132.75;4994150;28;1981;-63
2022/09/11 12:28:41;;;;;;;;;;;;;;;30.42;29.42;99133.03;4993985;28;870;-63
2022/09/11 12:31:10;;;;;;;;;;;;;;;30.80;29.06;99132.56;4976619;28;891;-63
2022/09/11 12:33:47;;;;;;;;;;;;;;;32.19;26.82;99122.50;4994300;28;885;-63
2022/09/11 12:36:12;;;;;;;;;;;;;;;33.24;25.55;99121.44;4994019;28;795;-62
2022/09/11 12:38:44;;;;;;;;;;;;;;;32.96;25.52;99120.34;4994202;28;902;-62
2022/09/11 12:41:29;;;;;;;;;;;;;;;32.55;26.26;99120.22;4993834;28;851;-62
2022/09/11 12:43:55;;;;;;;;;;;;;;;32.17;26.31;99119.44;4994079;28;811;-62
2022/09/11 12:46:21;;;;;;;;;;;;;;;32.53;26.45;99120.03;4993668;28;1953;-62
2022/09/11 12:48:54;;;;;;;;;;;;;;;33.24;25.98;99115.72;4994244;28;811;-62
2022/09/11 12:51:41;;;;;;;;;;;;;;;33.32;25.83;99122.16;4993635;28;855;-62
2022/09/11 12:54:19;;;;;;;;;;;;;;;33.58;25.74;99118.03;4993608;28;928;-62
2022/09/11 12:56:57;;;;;;;;;;;;;;;33.65;25.88;99110.78;4993569;28;803;-62
2022/09/11 12:59:30;;;;;;;;;;;;;;;33.56;25.75;99112.13;4993431;28;804;-63
2022/09/11 13:01:56;;;;;;;;;;;;;;;33.53;25.86;99111.19;4993462;28;871;-62
2022/09/11 13:04:27;;;;;;;;;;;;;;;32.98;26.58;99116.91;4993300;28;1953;-62
2022/09/11 13:06:58;;;;;;;;;;;;;;;32.07;27.16;99102.88;4993406;28;847;-63
2022/09/11 13:09:41;;;;;;;;;;;;;;;31.06;28.57;99118.09;4993274;28;892;-62
2022/09/11 13:12:15;;;;;;;;;;;;;;;31.16;28.61;99106.16;4993672;28;941;-62
2022/09/11 13:14:46;;;;;;;;;;;;;;;31.58;28.64;99103.09;4993538;28;854;-63
2022/09/11 13:17:32;;;;;;;;;;;;;;;32.01;27.59;99093.72;4993149;28;847;-62
2022/09/11 13:20:18;;;;;;;;;;;;;;;30.87;28.70;99104.09;4992780;28;1415;-63
2022/09/11 13:22:44;;;;;;;;;;;;;;;30.49;29.78;99109.50;4993430;28;831;-63
2022/09/11 13:25:12;;;;;;;;;;;;;;;29.91;30.43;99109.41;4993227;28;1907;-62
2022/09/11 13:27:43;;;;;;;;;;;;;;;29.37;30.97;99108.00;4993334;28;874;-63
2022/09/11 13:30:12;;;;;;;;;;;;;;;29.01;31.84;99102.00;4992975;28;811;-63
2022/09/11 13:32:39;;;;;;;;;;;;;;;30.02;30.59;99099.81;4992994;28;901;-63
2022/09/11 13:35:10;;;;;;;;;;;;;;;30.32;29.97;99105.03;4992921;28;960;-63
2022/09/11 13:37:52;;;;;;;;;;;;;;;29.71;30.82;99108.03;4992827;28;803;-64
2022/09/11 13:40:32;;;;;;;;;;;;;;;29.28;31.66;99097.06;4992787;28;878;-64
2022/09/11 13:43:01;;;;;;;;;;;;;;;29.29;31.47;99092.91;4993066;28;834;-63
2022/09/11 13:45:27;;;;;;;;;;;;;;;29.14;31.39;99102.00;4975232;28;1883;-63
2022/09/11 13:51:30;;;;;;;;;;;;;;;30.74;29.71;99098.47;4992701;28;618;-64
2022/09/11 13:54:28;;;;;;;;;;;;;;;31.67;28.37;99091.16;4992571;28;838;-64
2022/09/11 13:56:59;;;;;;;;;;;;;;;31.34;27.59;99096.53;4992589;28;897;-63
2022/09/11 13:59:43;;;;;;;;;;;;;;;30.20;29.16;99095.22;4992472;28;799;-64
2022/09/11 14:02:29;;;;;;;;;;;;;;;29.39;30.46;99099.66;4974976;28;1317;-63
2022/09/11 14:05:04;;;;;;;;;;;;;;;28.90;30.77;99091.63;4974942;28;1894;-63
2022/09/11 14:07:33;;;;;;;;;;;;;;;28.70;31.17;99087.38;4992705;28;893;-64
2022/09/11 14:10:03;;;;;;;;;;;;;;;28.80;31.27;99088.44;4992494;28;902;-62
2022/09/11 14:12:34;;;;;;;;;;;;;;;29.31;30.66;99090.28;4992768;28;1286;-63
2022/09/11 14:15:09;;;;;;;;;;;;;;;30.11;29.96;99087.16;4992330;28;867;-64